createdAt,value
2023-01-17T00:02:13.285Z,5.70
2023-01-17T00:04:59.068Z,5.80
2023-01-17T00:07:45.662Z,5.80
2023-01-17T00:10:21.578Z,5.80
2023-01-17T00:12:54.019Z,5.90
2023-01-17T00:15:23.290Z,5.90
2023-01-17T00:17:50.910Z,5.90
2023-01-17T00:20:47.612Z,5.90
2023-01-17T00:23:38.627Z,5.90
2023-01-17T00:26:18.385Z,5.90
2023-01-17T00:28:46.710Z,5.90
2023-01-17T00:31:16.047Z,5.90
2023-01-17T00:33:43.528Z,5.90
2023-01-17T00:36:11.264Z,5.90
2023-01-17T00:38:39.858Z,5.90
2023-01-17T00:41:09.542Z,5.90
2023-01-17T00:43:54.938Z,5.90
2023-01-17T00:46:41.059Z,5.90
2023-01-17T00:49:26.724Z,5.90
2023-01-17T00:52:12.287Z,5.90
2023-01-17T00:54:57.891Z,5.90
2023-01-17T00:57:43.316Z,5.90
2023-01-17T01:00:29.294Z,5.90
2023-01-17T01:03:14.903Z,6.00
2023-01-17T01:06:00.511Z,6.00
2023-01-17T01:08:47.938Z,6.00
2023-01-17T01:11:36.112Z,6.00
2023-01-17T01:14:22.226Z,6.00
2023-01-17T01:17:07.862Z,6.10
2023-01-17T01:19:53.480Z,6.10
2023-01-17T01:22:39.319Z,6.00
2023-01-17T01:25:25.020Z,6.10
2023-01-17T01:28:10.594Z,6.10
2023-01-17T01:30:56.017Z,6.20
2023-01-17T01:33:22.857Z,6.20
2023-01-17T01:35:54.457Z,6.20
2023-01-17T01:38:24.237Z,6.10
2023-01-17T01:40:56.020Z,6.10
2023-01-17T01:43:44.729Z,6.00
2023-01-17T01:46:16.793Z,6.00
2023-01-17T01:48:55.825Z,6.00
2023-01-17T01:51:31.234Z,6.00
2023-01-17T01:54:05.567Z,5.90
2023-01-17T01:56:33.421Z,5.90
2023-01-17T01:59:04.306Z,5.90
2023-01-17T02:01:32.000Z,5.90
2023-01-17T02:03:59.206Z,5.90
2023-01-17T02:06:36.070Z,5.90
2023-01-17T02:09:09.180Z,5.90
2023-01-17T02:11:38.861Z,5.90
2023-01-17T02:14:06.029Z,5.80
2023-01-17T02:16:33.019Z,5.80
2023-01-17T02:19:14.945Z,5.80
2023-01-17T02:21:56.358Z,5.90
2023-01-17T02:24:47.740Z,5.80
2023-01-17T02:27:43.604Z,5.80
2023-01-17T02:30:33.048Z,5.80
2023-01-17T02:33:10.054Z,5.80
2023-01-17T02:35:55.067Z,5.80
2023-01-17T02:38:36.924Z,5.80
2023-01-17T02:41:32.814Z,5.80
2023-01-17T02:44:01.751Z,5.80
2023-01-17T02:46:28.678Z,5.90
2023-01-17T02:48:57.877Z,6.00
2023-01-17T02:51:39.112Z,6.00
2023-01-17T02:54:05.949Z,6.00
2023-01-17T02:56:43.946Z,6.00
2023-01-17T02:59:10.842Z,6.00
2023-01-17T03:02:19.028Z,6.00
2023-01-17T03:04:56.744Z,6.00
2023-01-17T03:07:27.754Z,6.00
2023-01-17T03:10:01.558Z,5.90
2023-01-17T03:12:30.181Z,5.90
2023-01-17T03:14:57.357Z,5.90
2023-01-17T03:17:26.342Z,5.80
2023-01-17T03:19:53.219Z,5.80
2023-01-17T03:22:20.130Z,5.90
2023-01-17T03:24:48.075Z,5.80
2023-01-17T03:27:15.162Z,5.80
2023-01-17T03:29:42.067Z,5.80
2023-01-17T03:32:08.979Z,5.80
2023-01-17T03:34:35.845Z,5.80
2023-01-17T03:37:02.725Z,5.90
2023-01-17T03:39:29.682Z,5.80
2023-01-17T03:41:56.548Z,5.80
2023-01-17T03:44:23.486Z,5.90
2023-01-17T03:46:50.385Z,5.90
2023-01-17T03:49:17.307Z,5.90
2023-01-17T03:51:44.222Z,5.90
2023-01-17T03:54:11.112Z,5.90
2023-01-17T03:56:37.987Z,6.00
2023-01-17T03:59:04.886Z,6.10
2023-01-17T04:01:31.940Z,6.10
2023-01-17T04:03:58.897Z,6.10
2023-01-17T04:06:25.813Z,6.10
2023-01-17T04:08:53.168Z,6.00
2023-01-17T04:11:20.321Z,6.00
2023-01-17T04:13:47.195Z,6.00
2023-01-17T04:16:17.108Z,6.00
2023-01-17T04:18:44.823Z,6.00
2023-01-17T04:21:11.721Z,6.00
2023-01-17T04:23:38.735Z,6.00
2023-01-17T04:26:05.806Z,6.00
2023-01-17T04:28:32.732Z,6.10
2023-01-17T04:31:00.778Z,6.10
2023-01-17T04:33:27.761Z,6.10
2023-01-17T04:35:54.625Z,6.10
2023-01-17T04:38:23.415Z,6.00
2023-01-17T04:40:51.302Z,6.10
2023-01-17T04:43:18.198Z,6.10
2023-01-17T04:45:45.145Z,6.00
2023-01-17T04:48:12.947Z,6.00
2023-01-17T04:50:40.297Z,6.10
2023-01-17T04:53:07.296Z,6.00
2023-01-17T04:55:34.214Z,6.00
2023-01-17T04:58:01.117Z,6.10
2023-01-17T05:00:28.156Z,6.20
2023-01-17T05:02:55.072Z,6.20
2023-01-17T05:05:21.985Z,6.20
2023-01-17T05:07:56.575Z,6.20
2023-01-17T05:10:24.011Z,6.20
2023-01-17T05:12:57.352Z,6.20
2023-01-17T05:15:25.156Z,6.30
2023-01-17T05:17:53.395Z,6.30
2023-01-17T05:20:25.680Z,6.30
2023-01-17T05:22:57.083Z,6.20
2023-01-17T05:25:25.974Z,6.30
2023-01-17T05:27:52.995Z,6.30
2023-01-17T05:30:20.590Z,6.30
2023-01-17T05:32:52.459Z,6.20
2023-01-17T05:35:22.454Z,6.20
2023-01-17T05:37:51.109Z,6.30
2023-01-17T05:40:20.608Z,6.30
2023-01-17T05:42:51.963Z,6.30
2023-01-17T05:45:20.959Z,6.30
2023-01-17T05:47:50.018Z,6.30
2023-01-17T05:50:19.620Z,6.40
2023-01-17T05:52:53.740Z,6.40
2023-01-17T05:55:21.445Z,6.40
2023-01-17T05:57:48.497Z,6.30
2023-01-17T06:00:16.522Z,6.30
2023-01-17T06:02:45.284Z,6.40
2023-01-17T06:05:12.844Z,6.40
2023-01-17T06:07:39.984Z,6.40
2023-01-17T06:10:07.329Z,6.40
2023-01-17T06:12:34.206Z,6.40
2023-01-17T06:15:01.128Z,6.40
2023-01-17T06:17:28.031Z,6.40
2023-01-17T06:19:54.981Z,6.30
2023-01-17T06:22:21.825Z,6.30
2023-01-17T06:24:48.796Z,6.30
2023-01-17T06:27:15.764Z,6.40
2023-01-17T06:29:42.632Z,6.30
2023-01-17T06:32:09.774Z,6.40
2023-01-17T06:34:38.252Z,6.40
2023-01-17T06:37:05.232Z,6.30
2023-01-17T06:39:32.568Z,6.30
2023-01-17T06:41:59.814Z,6.30
2023-01-17T06:44:26.801Z,6.30
2023-01-17T06:46:54.279Z,6.30
2023-01-17T06:49:21.215Z,6.30
2023-01-17T06:51:48.171Z,6.20
2023-01-17T06:54:15.190Z,6.20
2023-01-17T06:56:42.099Z,6.20
2023-01-17T06:59:08.981Z,6.20
2023-01-17T07:01:36.130Z,6.20
2023-01-17T07:04:04.762Z,6.30
2023-01-17T07:06:31.651Z,6.30
2023-01-17T07:08:59.205Z,6.30
2023-01-17T07:11:27.617Z,6.30
2023-01-17T07:13:54.509Z,6.30
2023-01-17T07:16:21.474Z,6.30
2023-01-17T07:18:48.443Z,6.30
2023-01-17T07:21:15.992Z,6.30
2023-01-17T07:23:42.985Z,6.30
2023-01-17T07:26:09.894Z,6.40
2023-01-17T07:28:36.745Z,6.40
2023-01-17T07:31:10.731Z,6.40
2023-01-17T07:33:37.895Z,6.40
2023-01-17T07:36:09.466Z,6.30
2023-01-17T07:38:36.424Z,6.30
2023-01-17T07:41:03.396Z,6.30
2023-01-17T07:43:30.391Z,6.30
2023-01-17T07:45:57.640Z,6.30
2023-01-17T07:48:25.222Z,6.30
2023-01-17T07:50:57.128Z,6.20
2023-01-17T07:53:26.164Z,6.20
2023-01-17T07:55:53.144Z,6.20
2023-01-17T07:58:20.749Z,6.20
2023-01-17T08:00:48.016Z,6.20
2023-01-17T08:03:17.390Z,6.20
2023-01-17T08:05:54.023Z,6.10
2023-01-17T08:08:21.123Z,6.20
2023-01-17T08:10:49.538Z,6.20
2023-01-17T08:13:16.455Z,6.10
2023-01-17T08:15:43.353Z,6.20
2023-01-17T08:18:10.243Z,6.20
2023-01-17T08:20:37.162Z,6.20
2023-01-17T08:23:04.171Z,6.10
2023-01-17T08:25:33.175Z,6.10
2023-01-17T08:28:00.082Z,6.10
2023-01-17T08:30:27.348Z,6.10
2023-01-17T08:32:54.876Z,6.10
2023-01-17T08:35:22.799Z,6.20
2023-01-17T08:37:54.576Z,6.30
2023-01-17T08:40:21.993Z,6.30
2023-01-17T08:42:59.629Z,6.30
2023-01-17T08:45:27.558Z,6.30
2023-01-17T08:47:54.577Z,6.30
2023-01-17T08:50:21.537Z,6.30
2023-01-17T08:52:49.744Z,6.20
2023-01-17T08:55:17.386Z,6.30
2023-01-17T08:57:44.265Z,6.70
2023-01-17T09:00:11.658Z,7.40
2023-01-17T09:02:38.581Z,8.30
2023-01-17T09:05:06.221Z,8.90
2023-01-17T09:07:33.386Z,9.50
2023-01-17T09:10:00.274Z,9.80
2023-01-17T09:12:27.245Z,10.20
2023-01-17T09:14:54.173Z,10.60
2023-01-17T09:17:21.115Z,10.80
2023-01-17T09:19:48.874Z,11.20
2023-01-17T09:22:15.838Z,11.40
2023-01-17T09:24:42.747Z,11.50
2023-01-17T09:27:09.660Z,11.70
2023-01-17T09:29:36.609Z,11.80
2023-01-17T09:32:03.739Z,11.90
2023-01-17T09:34:30.733Z,12.10
2023-01-17T09:36:57.674Z,12.30
2023-01-17T09:39:24.690Z,12.40
2023-01-17T09:42:16.430Z,12.40
2023-01-17T09:44:53.452Z,12.50
2023-01-17T09:47:39.295Z,12.60
2023-01-17T09:50:24.660Z,12.60
2023-01-17T09:53:00.703Z,12.60
2023-01-17T09:55:58.426Z,12.60
2023-01-17T09:58:36.472Z,12.60
2023-01-17T10:01:15.803Z,12.70
2023-01-17T10:04:05.585Z,12.70
2023-01-17T10:06:57.659Z,12.80
2023-01-17T10:09:34.121Z,12.80
2023-01-17T10:12:20.426Z,12.80
2023-01-17T10:15:14.903Z,13.10
2023-01-17T10:18:07.188Z,13.10
2023-01-17T10:20:34.106Z,13.10
2023-01-17T10:23:01.082Z,13.00
2023-01-17T10:25:39.683Z,13.10
2023-01-17T10:28:30.724Z,13.10
2023-01-17T10:31:08.522Z,13.10
2023-01-17T10:33:46.079Z,12.80
2023-01-17T10:36:20.585Z,12.70
2023-01-17T10:38:56.407Z,12.70
2023-01-17T10:41:42.390Z,12.50
2023-01-17T10:44:44.751Z,12.30
2023-01-17T10:47:20.228Z,12.10
2023-01-17T10:49:49.597Z,11.90
2023-01-17T10:52:29.217Z,11.60
2023-01-17T10:55:04.095Z,11.60
2023-01-17T10:57:41.556Z,11.40
2023-01-17T11:00:31.089Z,11.20
2023-01-17T11:02:58.850Z,11.00
2023-01-17T11:05:29.065Z,10.90
2023-01-17T11:08:04.779Z,10.80
2023-01-17T11:10:50.000Z,10.60
2023-01-17T11:13:36.926Z,10.40
2023-01-17T11:16:17.651Z,10.30
2023-01-17T11:18:45.082Z,10.20
2023-01-17T11:21:20.942Z,10.10
2023-01-17T11:23:50.967Z,10.10
2023-01-17T11:26:29.437Z,10.20
2023-01-17T11:29:16.594Z,10.30
2023-01-17T11:31:43.513Z,10.40
2023-01-17T11:34:13.415Z,10.50
2023-01-17T11:36:40.525Z,10.50
2023-01-17T11:39:27.528Z,10.60
2023-01-17T11:41:54.972Z,10.60
2023-01-17T11:44:36.107Z,10.60
2023-01-17T11:47:09.694Z,10.50
2023-01-17T11:49:36.784Z,10.50
2023-01-17T11:52:33.781Z,10.30
2023-01-17T11:55:00.940Z,10.20
2023-01-17T11:57:33.467Z,10.20
2023-01-17T12:00:19.604Z,10.30
2023-01-17T12:03:15.317Z,10.40
2023-01-17T12:06:03.093Z,10.40
2023-01-17T12:08:51.393Z,10.20
2023-01-17T12:12:06.588Z,10.10
2023-01-17T12:14:54.951Z,10.10
2023-01-17T12:17:40.389Z,10.00
2023-01-17T12:20:24.437Z,10.00
2023-01-17T12:23:14.180Z,9.90
2023-01-17T12:25:55.334Z,10.00
2023-01-17T12:28:30.997Z,9.90
2023-01-17T12:31:27.125Z,9.80
2023-01-17T12:34:01.250Z,9.80
2023-01-17T12:36:33.155Z,9.70
2023-01-17T12:39:05.945Z,9.60
2023-01-17T12:42:04.490Z,9.60
2023-01-17T12:44:53.097Z,9.60
2023-01-17T12:47:22.129Z,9.60
2023-01-17T12:50:22.365Z,9.60
2023-01-17T12:52:53.617Z,9.50
2023-01-17T12:55:50.668Z,9.50
2023-01-17T12:58:26.563Z,9.40
2023-01-17T13:01:04.496Z,9.40
2023-01-17T13:03:45.110Z,9.30
2023-01-17T13:06:22.511Z,9.30
2023-01-17T13:08:55.321Z,9.10
2023-01-17T13:11:41.209Z,9.10
2023-01-17T13:14:11.299Z,9.00
2023-01-17T13:16:54.765Z,8.90
2023-01-17T13:19:41.817Z,9.00
2023-01-17T13:22:17.515Z,8.90
2023-01-17T13:24:50.798Z,8.90
2023-01-17T13:27:53.615Z,8.90
2023-01-17T13:30:29.620Z,8.90
2023-01-17T13:32:56.463Z,8.90
2023-01-17T13:35:50.975Z,8.90
2023-01-17T13:38:44.306Z,8.90
2023-01-17T13:41:38.085Z,8.80
2023-01-17T13:44:24.770Z,8.70
2023-01-17T13:47:01.243Z,8.70
2023-01-17T13:49:34.005Z,8.60
2023-01-17T13:52:19.053Z,8.60
2023-01-17T13:54:54.720Z,8.50
2023-01-17T13:57:32.863Z,8.50
2023-01-17T14:00:36.422Z,8.50
2023-01-17T14:03:03.423Z,8.50
2023-01-17T14:05:30.279Z,8.50
2023-01-17T14:08:03.955Z,8.40
2023-01-17T14:10:30.788Z,8.40
2023-01-17T14:12:59.039Z,8.40
2023-01-17T14:15:28.328Z,8.40
2023-01-17T14:18:00.758Z,8.40
2023-01-17T14:20:27.644Z,8.30
2023-01-17T14:22:56.034Z,8.30
2023-01-17T14:25:28.117Z,8.20
2023-01-17T14:28:21.905Z,8.10
2023-01-17T14:30:54.419Z,8.10
2023-01-17T14:33:37.448Z,8.00
2023-01-17T14:36:07.548Z,8.00
2023-01-17T14:38:41.076Z,8.00
2023-01-17T14:41:21.697Z,8.00
2023-01-17T14:43:51.322Z,8.00
2023-01-17T14:46:36.140Z,8.00
2023-01-17T14:49:19.904Z,8.00
2023-01-17T14:52:00.114Z,8.00
2023-01-17T14:54:27.004Z,7.90
2023-01-17T14:57:14.678Z,7.90
2023-01-17T14:59:41.679Z,7.80
2023-01-17T15:02:15.968Z,7.80
2023-01-17T15:04:43.315Z,7.80
2023-01-17T15:07:17.023Z,7.70
2023-01-17T15:09:45.031Z,7.70
2023-01-17T15:12:16.200Z,7.70
2023-01-17T15:14:46.361Z,7.70
2023-01-17T15:17:20.357Z,7.70
2023-01-17T15:20:01.852Z,7.60
2023-01-17T15:22:29.892Z,7.60
2023-01-17T15:24:58.614Z,7.70
2023-01-17T15:27:26.705Z,7.70
2023-01-17T15:29:54.372Z,7.70
2023-01-17T15:32:24.409Z,7.80
2023-01-17T15:34:52.530Z,7.70
2023-01-17T15:37:42.142Z,7.70
2023-01-17T15:40:20.759Z,7.60
2023-01-17T15:42:54.663Z,7.60
2023-01-17T15:45:28.526Z,7.60
2023-01-17T15:47:55.493Z,7.60
2023-01-17T15:50:30.153Z,7.60
2023-01-17T15:52:58.934Z,7.50
2023-01-17T15:55:31.553Z,7.50
2023-01-17T15:57:58.618Z,7.50
2023-01-17T16:00:40.573Z,7.50
2023-01-17T16:03:23.689Z,7.50
2023-01-17T16:05:52.137Z,7.50
2023-01-17T16:08:38.634Z,7.50
2023-01-17T16:11:07.017Z,7.50
2023-01-17T16:13:38.718Z,7.50
2023-01-17T16:16:17.141Z,7.50
2023-01-17T16:18:46.601Z,7.50
2023-01-17T16:21:25.658Z,7.50
2023-01-17T16:23:53.594Z,7.60
2023-01-17T16:26:21.523Z,7.60
2023-01-17T16:28:48.992Z,7.60
2023-01-17T16:31:17.237Z,7.50
2023-01-17T16:33:46.270Z,7.50
2023-01-17T16:36:15.657Z,7.50
2023-01-17T16:38:48.451Z,7.50
2023-01-17T16:41:15.369Z,7.40
2023-01-17T16:43:42.367Z,7.40
2023-01-17T16:46:11.662Z,7.30
2023-01-17T16:48:38.593Z,7.20
2023-01-17T16:51:07.229Z,7.10
2023-01-17T16:53:35.340Z,7.10
2023-01-17T16:56:12.225Z,7.00
2023-01-17T16:58:39.659Z,6.90
2023-01-17T17:01:17.336Z,6.80
2023-01-17T17:03:44.751Z,6.70
2023-01-17T17:06:12.086Z,6.70
2023-01-17T17:08:39.889Z,6.60
2023-01-17T17:11:21.065Z,6.50
2023-01-17T17:13:50.108Z,6.40
2023-01-17T17:16:18.483Z,6.30
2023-01-17T17:18:47.696Z,6.20
2023-01-17T17:21:15.054Z,6.20
2023-01-17T17:23:42.274Z,6.20
2023-01-17T17:26:09.424Z,6.20
2023-01-17T17:28:37.025Z,6.20
2023-01-17T17:31:11.103Z,6.10
2023-01-17T17:33:38.984Z,6.20
2023-01-17T17:36:08.247Z,6.10
2023-01-17T17:38:35.337Z,6.10
2023-01-17T17:41:10.351Z,6.10
2023-01-17T17:43:41.594Z,6.00
2023-01-17T17:46:09.380Z,6.00
2023-01-17T17:48:36.975Z,6.00
2023-01-17T17:51:05.509Z,6.00
2023-01-17T17:53:33.265Z,6.00
2023-01-17T17:56:05.974Z,5.90
2023-01-17T17:58:34.931Z,5.90
2023-01-17T18:01:03.548Z,5.90
2023-01-17T18:03:31.419Z,5.90
2023-01-17T18:06:10.383Z,5.90
2023-01-17T18:08:38.890Z,5.90
2023-01-17T18:11:11.328Z,5.90
2023-01-17T18:13:41.883Z,5.90
2023-01-17T18:16:12.405Z,5.90
2023-01-17T18:18:43.891Z,5.90
2023-01-17T18:21:17.263Z,5.90
2023-01-17T18:23:45.638Z,5.90
2023-01-17T18:26:39.541Z,5.90
2023-01-17T18:29:09.457Z,5.90
2023-01-17T18:31:37.307Z,5.90
2023-01-17T18:34:08.885Z,5.90
2023-01-17T18:36:37.080Z,5.90
2023-01-17T18:39:16.309Z,6.00
2023-01-17T18:41:44.436Z,6.00
2023-01-17T18:46:55.847Z,6.00
2023-01-17T18:52:40.071Z,6.00
2023-01-17T18:55:07.611Z,6.00
2023-01-17T18:57:35.029Z,6.00
2023-01-17T19:00:03.072Z,6.10
2023-01-17T19:02:30.647Z,6.00
2023-01-17T19:04:58.313Z,6.00
2023-01-17T19:07:29.535Z,6.10
2023-01-17T19:09:57.258Z,6.10
2023-01-17T19:12:25.078Z,6.10
2023-01-17T19:14:53.089Z,6.00
2023-01-17T19:17:20.696Z,6.00
2023-01-17T19:19:49.179Z,6.00
2023-01-17T19:22:16.757Z,6.00
2023-01-17T19:24:43.883Z,6.00
2023-01-17T19:27:13.632Z,6.10
2023-01-17T19:29:41.215Z,6.00
2023-01-17T19:32:09.889Z,6.00
2023-01-17T19:34:37.461Z,6.10
2023-01-17T19:37:06.606Z,6.10
2023-01-17T19:39:34.444Z,6.10
2023-01-17T19:42:01.724Z,6.00
2023-01-17T19:44:30.256Z,6.10
2023-01-17T19:46:58.379Z,6.10
2023-01-17T19:49:27.553Z,6.00
2023-01-17T19:51:55.090Z,5.90
2023-01-17T19:54:23.655Z,5.90
2023-01-17T19:56:51.556Z,5.90
2023-01-17T19:59:20.546Z,5.90
2023-01-17T20:01:49.384Z,5.90
2023-01-17T20:04:21.543Z,6.00
2023-01-17T20:06:49.050Z,5.90
2023-01-17T20:09:17.878Z,6.00
2023-01-17T20:11:47.095Z,5.90
2023-01-17T20:14:15.825Z,5.90
2023-01-17T20:16:47.870Z,6.00
2023-01-17T20:19:16.091Z,6.00
2023-01-17T20:21:43.621Z,6.00
2023-01-17T20:24:14.728Z,6.10
2023-01-17T20:26:42.121Z,6.10
2023-01-17T20:29:16.846Z,6.20
2023-01-17T20:31:45.736Z,6.10
2023-01-17T20:34:14.682Z,6.10
2023-01-17T20:36:42.795Z,6.20
2023-01-17T20:39:13.232Z,6.30
2023-01-17T20:41:42.845Z,6.20
2023-01-17T20:44:13.191Z,6.20
2023-01-17T20:46:44.097Z,6.20
2023-01-17T20:49:15.725Z,6.20
2023-01-17T20:51:44.595Z,6.20
2023-01-17T20:54:14.545Z,6.20
2023-01-17T20:56:42.324Z,6.20
2023-01-17T20:59:13.509Z,6.20
2023-01-17T21:01:40.904Z,6.20
2023-01-17T21:04:11.159Z,6.20
2023-01-17T21:06:40.316Z,6.10
2023-01-17T21:09:10.929Z,6.00
2023-01-17T21:11:37.936Z,5.90
2023-01-17T21:14:06.245Z,5.90
2023-01-17T21:16:35.089Z,5.90
2023-01-17T21:19:02.341Z,5.80
2023-01-17T21:21:29.832Z,5.80
2023-01-17T21:23:59.267Z,5.80
2023-01-17T21:26:28.326Z,5.80
2023-01-17T21:28:56.044Z,5.90
2023-01-17T21:31:29.760Z,5.90
2023-01-17T21:34:03.254Z,5.90
2023-01-17T21:36:33.240Z,5.90
2023-01-17T21:39:04.859Z,6.00
2023-01-17T21:41:35.625Z,5.90
2023-01-17T21:44:07.683Z,5.80
2023-01-17T21:46:41.152Z,5.80
2023-01-17T21:49:11.944Z,5.80
2023-01-17T21:51:55.275Z,5.80
2023-01-17T21:54:45.296Z,5.90
2023-01-17T21:57:32.394Z,6.00
2023-01-17T21:59:59.333Z,6.00
2023-01-17T22:02:26.383Z,5.80
2023-01-17T22:04:54.734Z,5.80
2023-01-17T22:07:21.776Z,5.80
2023-01-17T22:09:48.694Z,5.80
2023-01-17T22:12:15.581Z,5.90
2023-01-17T22:14:42.472Z,5.90
2023-01-17T22:17:09.830Z,6.00
2023-01-17T22:19:36.804Z,6.00
2023-01-17T22:22:04.073Z,6.00
2023-01-17T22:24:31.008Z,6.00
2023-01-17T22:26:57.947Z,6.00
2023-01-17T22:29:24.987Z,6.00
2023-01-17T22:31:51.858Z,5.90
2023-01-17T22:34:19.073Z,5.70
2023-01-17T22:36:46.087Z,5.80
2023-01-17T22:39:13.058Z,5.80
2023-01-17T22:41:40.131Z,5.80
2023-01-17T22:44:07.669Z,5.70
2023-01-17T22:46:38.517Z,5.70
2023-01-17T22:49:07.706Z,5.60
2023-01-17T22:51:35.493Z,5.60
2023-01-17T22:54:02.663Z,5.50
2023-01-17T22:56:32.065Z,5.50
2023-01-17T22:59:00.850Z,5.50
2023-01-17T23:01:30.453Z,5.50
2023-01-17T23:04:02.590Z,5.40
2023-01-17T23:06:34.893Z,5.40
2023-01-17T23:09:06.562Z,5.30
2023-01-17T23:11:44.222Z,5.40
2023-01-17T23:14:21.525Z,5.30
2023-01-17T23:17:15.057Z,5.40
2023-01-17T23:19:54.482Z,5.40
2023-01-17T23:22:28.156Z,5.30
2023-01-17T23:25:00.695Z,5.30
2023-01-17T23:27:54.384Z,5.30
2023-01-17T23:30:36.312Z,5.40
2023-01-17T23:33:08.932Z,5.30
2023-01-17T23:35:42.154Z,5.30
2023-01-17T23:38:26.381Z,5.30
2023-01-17T23:41:17.305Z,5.40
2023-01-17T23:43:44.235Z,5.30
2023-01-17T23:46:12.965Z,5.30
2023-01-17T23:48:39.949Z,5.30
2023-01-17T23:51:08.280Z,5.40
2023-01-17T23:53:37.427Z,5.40
2023-01-17T23:56:07.276Z,5.40
2023-01-17T23:58:34.211Z,5.40
